Time;durP1;ratioP1;P1;durP2;ratioP2;P2;SDS_P1;SDS_P2;PMS_P1;PMS_P2;Temp;Humidity;BMP_temperature;BMP_pressure;BME280_temperature;BME280_humidity;BME280_pressure;Samples;Min_cycle;Max_cycle;Signal;HPM_P1;HPM_P2
2023/06/05 00:00:44;;;;;;;;;;;;;;;15.09;100.00;96168.88;5028716;28;19933;-77
2023/06/05 00:03:11;;;;;;;;;;;;;;;15.04;100.00;96171.59;5029429;28;19925;-78
2023/06/05 00:05:38;;;;;;;;;;;;;;;14.97;100.00;96172.91;5035449;28;19928;-78
2023/06/05 00:08:05;;;;;;;;;;;;;;;14.93;100.00;96172.59;5026546;28;19925;-78
2023/06/05 00:10:35;;;;;;;;;;;;;;;14.83;100.00;96168.97;5025957;28;19987;-79
2023/06/05 00:13:02;;;;;;;;;;;;;;;14.77;100.00;96168.94;5026099;28;19929;-79
2023/06/05 00:15:43;;;;;;;;;;;;;;;14.76;100.00;96169.19;5025992;28;19926;-79
2023/06/05 00:18:14;;;;;;;;;;;;;;;14.67;100.00;96165.31;5034211;28;19984;-77
2023/06/05 00:20:40;;;;;;;;;;;;;;;14.58;100.00;96172.31;5020297;28;19925;-78
2023/06/05 00:23:11;;;;;;;;;;;;;;;14.59;100.00;96165.81;5023206;28;19932;-79
2023/06/05 00:25:43;;;;;;;;;;;;;;;14.64;100.00;96165.84;5023884;28;19981;-78
2023/06/05 00:28:09;;;;;;;;;;;;;;;14.61;100.00;96171.81;5032218;28;19925;-78
2023/06/05 00:30:38;;;;;;;;;;;;;;;14.54;100.00;96169.31;5009294;28;19932;-79
2023/06/05 00:33:08;;;;;;;;;;;;;;;14.50;100.00;96172.81;5034714;28;19925;-79
2023/06/05 00:35:36;;;;;;;;;;;;;;;14.45;100.00;96170.06;5022944;28;19925;-78
2023/06/05 00:38:03;;;;;;;;;;;;;;;14.44;100.00;96173.84;5026452;28;19926;-78
2023/06/05 00:40:32;;;;;;;;;;;;;;;14.45;100.00;96172.78;5026890;28;19925;-78
2023/06/05 00:42:59;;;;;;;;;;;;;;;14.42;100.00;96173.28;5025289;28;20020;-79
2023/06/05 00:45:26;;;;;;;;;;;;;;;14.36;100.00;96167.78;5026316;28;20032;-79
2023/06/05 00:47:53;;;;;;;;;;;;;;;14.37;100.00;96166.69;5040462;28;19957;-78
2023/06/05 00:50:22;;;;;;;;;;;;;;;14.31;100.00;96173.16;5029325;28;19928;-78
2023/06/05 00:52:51;;;;;;;;;;;;;;;14.30;100.00;96182.38;5024322;28;19932;-78
2023/06/05 00:55:18;;;;;;;;;;;;;;;14.27;100.00;96177.47;5019661;28;19925;-78
2023/06/05 00:57:45;;;;;;;;;;;;;;;14.24;100.00;96182.59;5043519;28;19947;-78
2023/06/05 01:00:13;;;;;;;;;;;;;;;14.24;100.00;96183.41;5042835;28;19932;-79
2023/06/05 01:02:40;;;;;;;;;;;;;;;14.22;100.00;96182.84;5021506;28;19932;-78
2023/06/05 01:05:07;;;;;;;;;;;;;;;14.16;100.00;96175.72;5022349;28;19932;-78
2023/06/05 01:07:37;;;;;;;;;;;;;;;14.11;100.00;96177.59;5024931;28;19925;-78
2023/06/05 01:10:06;;;;;;;;;;;;;;;14.14;100.00;96175.16;5023065;28;19926;-79
2023/06/05 01:12:37;;;;;;;;;;;;;;;14.17;100.00;96177.38;5025506;28;19925;-78
2023/06/05 01:15:05;;;;;;;;;;;;;;;14.17;100.00;96180.09;5042842;28;19925;-78
2023/06/05 01:17:33;;;;;;;;;;;;;;;14.15;100.00;96187.66;5019216;28;19976;-78
2023/06/05 01:20:09;;;;;;;;;;;;;;;14.12;100.00;96176.50;5024271;28;19970;-78
2023/06/05 01:22:37;;;;;;;;;;;;;;;14.20;100.00;96181.47;5024788;28;19948;-78
2023/06/05 01:25:09;;;;;;;;;;;;;;;14.19;100.00;96191.53;5025499;28;19948;-78
2023/06/05 01:27:41;;;;;;;;;;;;;;;14.15;100.00;96178.69;5018588;28;19948;-78
2023/06/05 01:30:13;;;;;;;;;;;;;;;14.07;100.00;96176.44;5028311;28;19925;-78
2023/06/05 01:32:44;;;;;;;;;;;;;;;14.07;100.00;96176.44;5026010;28;20053;-77
2023/06/05 01:35:16;;;;;;;;;;;;;;;14.14;100.00;96177.88;5023814;28;20078;-78
2023/06/05 01:37:48;;;;;;;;;;;;;;;14.16;100.00;96180.34;5021259;28;19935;-78
2023/06/05 01:40:17;;;;;;;;;;;;;;;14.15;100.00;96178.69;5015919;28;19933;-78
2023/06/05 01:42:48;;;;;;;;;;;;;;;14.13;100.00;96180.84;5017483;28;19925;-78
2023/06/05 01:45:15;;;;;;;;;;;;;;;14.13;100.00;96173.50;5028994;28;19925;-78
2023/06/05 01:47:43;;;;;;;;;;;;;;;14.13;100.00;96178.13;5037801;28;19935;-78
2023/06/05 01:50:13;;;;;;;;;;;;;;;14.08;100.00;96169.94;5026509;28;19929;-78
2023/06/05 01:52:41;;;;;;;;;;;;;;;14.05;100.00;96176.69;5024239;28;19937;-78
2023/06/05 01:55:14;;;;;;;;;;;;;;;14.04;100.00;96180.47;5023573;28;19972;-78
2023/06/05 01:57:43;;;;;;;;;;;;;;;14.03;100.00;96178.88;5025174;28;19929;-78
2023/06/05 02:00:15;;;;;;;;;;;;;;;14.04;100.00;96169.63;5026756;28;19925;-77
2023/06/05 02:02:48;;;;;;;;;;;;;;;13.98;100.00;96167.94;5025214;28;19925;-78
2023/06/05 02:05:19;;;;;;;;;;;;;;;13.93;100.00;96168.72;5020471;28;19925;-78
2023/06/05 02:07:49;;;;;;;;;;;;;;;13.90;100.00;96176.53;5017668;28;19926;-78
2023/06/05 02:10:29;;;;;;;;;;;;;;;13.87;100.00;96172.44;5039872;28;19924;-78
2023/06/05 02:12:58;;;;;;;;;;;;;;;13.90;100.00;96168.41;5029099;28;19936;-78
2023/06/05 02:15:25;;;;;;;;;;;;;;;13.91;100.00;96161.91;5030376;28;19932;-78
2023/06/05 02:17:53;;;;;;;;;;;;;;;13.88;100.00;96167.81;5029723;28;19932;-78
2023/06/05 02:20:21;;;;;;;;;;;;;;;13.90;100.00;96160.25;5028113;28;20007;-78
2023/06/05 02:22:49;;;;;;;;;;;;;;;13.95;100.00;96165.75;5020372;28;19933;-78
2023/06/05 02:25:18;;;;;;;;;;;;;;;13.96;100.00;96170.09;5041817;28;19926;-77
2023/06/05 02:27:49;;;;;;;;;;;;;;;14.01;100.00;96167.44;5027846;28;19960;-78
2023/06/05 02:30:18;;;;;;;;;;;;;;;14.06;100.00;96163.94;5030670;28;19925;-78
2023/06/05 02:32:46;;;;;;;;;;;;;;;14.08;100.00;96165.34;5028809;28;19929;-78
2023/06/05 02:35:14;;;;;;;;;;;;;;;14.05;100.00;96168.56;5030041;28;19979;-78
2023/06/05 02:37:43;;;;;;;;;;;;;;;14.05;100.00;96163.13;5036500;28;19928;-77
2023/06/05 02:40:15;;;;;;;;;;;;;;;14.00;100.00;96163.91;5029895;28;19926;-78
2023/06/05 02:42:42;;;;;;;;;;;;;;;13.91;100.00;96170.88;5033926;28;20538;-78
2023/06/05 02:45:09;;;;;;;;;;;;;;;13.79;100.00;96169.34;5046682;28;19932;-78
2023/06/05 02:47:37;;;;;;;;;;;;;;;13.68;100.00;96167.63;5029203;28;19925;-78
2023/06/05 02:50:06;;;;;;;;;;;;;;;13.63;100.00;96166.47;5025702;28;19925;-78
2023/06/05 02:52:38;;;;;;;;;;;;;;;13.55;100.00;96166.91;5038933;28;19931;-78
2023/06/05 02:55:11;;;;;;;;;;;;;;;13.60;100.00;96174.31;5016690;28;19940;-78
2023/06/05 02:57:42;;;;;;;;;;;;;;;13.66;100.00;96167.03;5028813;28;19931;-78
2023/06/05 03:00:16;;;;;;;;;;;;;;;13.69;100.00;96171.97;5029835;28;19925;-78
2023/06/05 03:02:48;;;;;;;;;;;;;;;13.66;100.00;96169.75;5027594;28;19963;-78
2023/06/05 03:05:24;;;;;;;;;;;;;;;13.62;100.00;96170.25;5030147;28;19925;-78
2023/06/05 03:07:54;;;;;;;;;;;;;;;13.59;100.00;96162.66;5031034;28;19967;-78
2023/06/05 03:10:23;;;;;;;;;;;;;;;13.55;100.00;96164.22;5025716;28;19933;-78
2023/06/05 03:12:50;;;;;;;;;;;;;;;13.51;100.00;96167.69;5030443;28;20059;-78
2023/06/05 03:15:18;;;;;;;;;;;;;;;13.48;100.00;96163.59;5024985;28;19960;-78
2023/06/05 03:17:47;;;;;;;;;;;;;;;13.49;100.00;96169.84;5024618;28;19972;-78
2023/06/05 03:20:14;;;;;;;;;;;;;;;13.47;100.00;96172.78;5020871;28;20020;-78
2023/06/05 03:22:41;;;;;;;;;;;;;;;13.44;100.00;96169.78;5026462;28;19937;-78
2023/06/05 03:25:10;;;;;;;;;;;;;;;13.44;100.00;96170.56;5026926;28;19940;-78
2023/06/05 03:27:41;;;;;;;;;;;;;;;13.45;100.00;96168.69;5025270;28;19925;-78
2023/06/05 03:30:09;;;;;;;;;;;;;;;13.45;100.00;96169.50;5025764;28;20267;-77
2023/06/05 03:32:41;;;;;;;;;;;;;;;13.48;100.00;96169.00;5022558;28;19929;-78
2023/06/05 03:35:10;;;;;;;;;;;;;;;13.48;100.00;96169.00;5034409;28;19932;-78
2023/06/05 03:37:38;;;;;;;;;;;;;;;13.48;100.00;96163.59;5026391;28;19968;-78
2023/06/05 03:40:06;;;;;;;;;;;;;;;13.45;100.00;96168.69;5025461;28;19925;-78
2023/06/05 03:42:35;;;;;;;;;;;;;;;13.41;100.00;96176.53;5035374;28;19933;-78
2023/06/05 03:45:03;;;;;;;;;;;;;;;13.36;100.00;96179.16;5026736;28;19940;-78
2023/06/05 03:47:34;;;;;;;;;;;;;;;13.28;100.00;96174.16;5023252;28;19932;-78
2023/06/05 03:50:02;;;;;;;;;;;;;;;13.22;100.00;96169.75;5017633;28;19925;-77
2023/06/05 03:52:32;;;;;;;;;;;;;;;13.22;100.00;96175.19;5027647;28;19932;-78
2023/06/05 03:55:00;;;;;;;;;;;;;;;13.25;100.00;96174.69;5028510;28;19925;-78
2023/06/05 03:57:27;;;;;;;;;;;;;;;13.32;100.00;96178.03;5023685;28;19925;-78
2023/06/05 03:59:54;;;;;;;;;;;;;;;13.37;100.00;96172.66;5029444;28;19940;-78
2023/06/05 04:02:21;;;;;;;;;;;;;;;13.40;100.00;96174.88;5025480;28;20111;-78
2023/06/05 04:04:50;;;;;;;;;;;;;;;13.42;100.00;96183.59;5025286;28;19925;-78
2023/06/05 04:07:19;;;;;;;;;;;;;;;13.42;100.00;96180.06;5026196;28;19925;-78
2023/06/05 04:09:49;;;;;;;;;;;;;;;13.36;100.00;96178.34;5025268;28;19940;-78
2023/06/05 04:12:16;;;;;;;;;;;;;;;13.32;100.00;96183.47;5027027;28;19929;-78
2023/06/05 04:14:44;;;;;;;;;;;;;;;13.32;100.00;96180.75;5025679;28;19933;-77
2023/06/05 04:17:13;;;;;;;;;;;;;;;13.33;100.00;96182.38;5026573;28;19936;-78
2023/06/05 04:19:40;;;;;;;;;;;;;;;13.36;100.00;96181.88;5023497;28;20064;-78
2023/06/05 04:22:08;;;;;;;;;;;;;;;13.36;100.00;96183.75;5026934;28;20001;-77
2023/06/05 04:24:37;;;;;;;;;;;;;;;13.38;100.00;96187.88;5024564;28;20002;-78
2023/06/05 04:27:08;;;;;;;;;;;;;;;13.33;100.00;96187.00;5025257;28;20028;-78
2023/06/05 04:29:36;;;;;;;;;;;;;;;13.34;100.00;96188.63;5026465;28;19932;-78
2023/06/05 04:32:03;;;;;;;;;;;;;;;13.39;100.00;96185.97;5031599;28;19925;-78
2023/06/05 04:34:31;;;;;;;;;;;;;;;13.36;100.00;96192.72;5027444;28;19949;-78
2023/06/05 04:36:59;;;;;;;;;;;;;;;13.32;100.00;96196.19;5026928;28;20006;-78
2023/06/05 04:39:26;;;;;;;;;;;;;;;13.27;100.00;96194.22;5016270;28;20024;-77
2023/06/05 04:41:53;;;;;;;;;;;;;;;13.22;100.00;96200.41;5024107;28;19926;-77
2023/06/05 04:44:26;;;;;;;;;;;;;;;13.19;100.00;96198.19;5032476;28;19926;-78
2023/06/05 04:46:55;;;;;;;;;;;;;;;13.23;100.00;96199.34;5019873;28;20015;-78
2023/06/05 04:49:23;;;;;;;;;;;;;;;13.25;100.00;96196.38;5023279;28;19925;-78
2023/06/05 04:51:50;;;;;;;;;;;;;;;13.28;100.00;96201.28;5016973;28;19992;-77
2023/06/05 04:54:18;;;;;;;;;;;;;;;13.29;100.00;96204.81;5026636;28;19948;-77
2023/06/05 04:56:49;;;;;;;;;;;;;;;13.31;100.00;96200.78;5036692;28;19948;-78
2023/06/05 04:59:16;;;;;;;;;;;;;;;13.32;100.00;96201.63;5026098;28;19951;-78
2023/06/05 05:01:44;;;;;;;;;;;;;;;13.34;100.00;96197.59;5043498;28;20086;-77
2023/06/05 05:04:11;;;;;;;;;;;;;;;13.36;100.00;96198.13;5025035;28;19925;-77
2023/06/05 05:06:40;;;;;;;;;;;;;;;13.32;100.00;96188.88;5029838;28;19988;-77
2023/06/05 05:09:08;;;;;;;;;;;;;;;13.23;100.00;96191.19;5042641;28;19925;-78
2023/06/05 05:11:36;;;;;;;;;;;;;;;13.19;100.00;96197.34;5022040;28;19972;-77
2023/06/05 05:14:03;;;;;;;;;;;;;;;13.24;100.00;96200.16;5028337;28;19960;-77
2023/06/05 05:16:30;;;;;;;;;;;;;;;13.25;100.00;96194.50;5038995;28;19925;-78
2023/06/05 05:18:59;;;;;;;;;;;;;;;13.31;100.00;96199.97;5027050;28;19932;-77
2023/06/05 05:21:26;;;;;;;;;;;;;;;13.38;100.00;96206.03;5015958;28;19926;-77
2023/06/05 05:23:53;;;;;;;;;;;;;;;13.41;100.00;96200.94;5033664;28;19972;-78
2023/06/05 05:26:20;;;;;;;;;;;;;;;13.37;100.00;96198.97;5024546;28;19933;-78
2023/06/05 05:28:48;;;;;;;;;;;;;;;13.34;100.00;96203.00;5024074;28;19924;-78
2023/06/05 05:31:18;;;;;;;;;;;;;;;13.36;100.00;96200.84;5028217;28;19936;-79
2023/06/05 05:33:46;;;;;;;;;;;;;;;13.41;100.00;96200.94;5026567;28;19995;-78
2023/06/05 05:36:15;;;;;;;;;;;;;;;13.45;100.00;96203.94;5024492;28;20020;-78
2023/06/05 05:38:42;;;;;;;;;;;;;;;13.45;100.00;96199.34;5035344;28;19933;-78
2023/06/05 05:41:08;;;;;;;;;;;;;;;13.47;100.00;96213.47;5025457;28;19932;-78
2023/06/05 05:43:36;;;;;;;;;;;;;;;13.51;100.00;96211.91;5028568;28;19972;-79
2023/06/05 05:46:03;;;;;;;;;;;;;;;13.50;100.00;96207.56;5029070;28;19924;-77
2023/06/05 05:48:30;;;;;;;;;;;;;;;13.48;100.00;96200.75;5046083;28;19948;-78
2023/06/05 05:50:56;;;;;;;;;;;;;;;13.43;100.00;96209.66;5042082;28;19925;-78
2023/06/05 05:53:25;;;;;;;;;;;;;;;13.37;100.00;96205.22;5026752;28;19933;-78
2023/06/05 05:55:55;;;;;;;;;;;;;;;13.33;100.00;96205.97;5024556;28;19924;-78
2023/06/05 05:58:22;;;;;;;;;;;;;;;13.33;100.00;96204.09;5047203;28;19932;-78
2023/06/05 06:00:49;;;;;;;;;;;;;;;13.31;100.00;96199.97;5033863;28;19979;-79
2023/06/05 06:03:17;;;;;;;;;;;;;;;13.24;100.00;96206.41;5031724;28;19932;-79
2023/06/05 06:05:44;;;;;;;;;;;;;;;13.22;100.00;96196.88;5035929;28;19925;-79
2023/06/05 06:08:11;;;;;;;;;;;;;;;13.17;100.00;96197.63;5029180;28;19925;-79
2023/06/05 06:10:39;;;;;;;;;;;;;;;13.20;100.00;96197.13;5039782;28;19999;-79
2023/06/05 06:13:07;;;;;;;;;;;;;;;13.28;100.00;96190.44;5032273;28;19931;-79
2023/06/05 06:15:33;;;;;;;;;;;;;;;13.38;100.00;96185.16;5043819;28;20008;-79
2023/06/05 06:18:02;;;;;;;;;;;;;;;13.40;100.00;96191.16;5030471;28;19928;-79
2023/06/05 06:20:29;;;;;;;;;;;;;;;13.37;100.00;96188.94;5028470;28;19925;-78
2023/06/05 06:22:56;;;;;;;;;;;;;;;13.37;100.00;96191.66;5017886;28;19929;-79
2023/06/05 06:25:25;;;;;;;;;;;;;;;13.44;100.00;96194.97;5042650;28;19929;-78
2023/06/05 06:27:54;;;;;;;;;;;;;;;13.52;100.00;96197.28;5022730;28;19968;-79
2023/06/05 06:30:21;;;;;;;;;;;;;;;13.56;100.00;96197.59;5025048;28;19925;-79
2023/06/05 06:32:48;;;;;;;;;;;;;;;13.64;100.00;96200.69;5023899;28;19972;-79
2023/06/05 06:35:14;;;;;;;;;;;;;;;13.71;100.00;96197.75;5022411;28;20175;-79
2023/06/05 06:37:41;;;;;;;;;;;;;;;13.73;100.00;96190.19;5040516;28;19926;-79
2023/06/05 06:40:10;;;;;;;;;;;;;;;13.78;100.00;96194.88;5030910;28;20019;-78
2023/06/05 06:42:37;;;;;;;;;;;;;;;13.84;100.00;96200.09;5036884;28;19925;-79
2023/06/05 06:45:24;;;;;;;;;;;;;;;13.92;100.00;96196.94;5042807;28;19932;-79
2023/06/05 06:47:51;;;;;;;;;;;;;;;13.97;100.00;96196.97;5023037;28;19933;-79
2023/06/05 06:50:18;;;;;;;;;;;;;;;14.03;100.00;96203.31;5026149;28;19925;-79
2023/06/05 06:52:46;;;;;;;;;;;;;;;14.12;100.00;96201.75;5034332;28;19925;-78
2023/06/05 06:55:13;;;;;;;;;;;;;;;14.22;100.00;96196.41;5030780;28;19937;-76
2023/06/05 06:57:40;;;;;;;;;;;;;;;14.25;100.00;96200.53;5022571;28;19928;-76
2023/06/05 07:00:09;;;;;;;;;;;;;;;14.28;100.00;96205.44;5022221;28;19928;-77
2023/06/05 07:02:38;;;;;;;;;;;;;;;14.34;100.00;96207.13;5026154;28;19932;-77
2023/06/05 07:05:06;;;;;;;;;;;;;;;14.47;100.00;96204.00;5028114;28;19940;-78
2023/06/05 07:07:32;;;;;;;;;;;;;;;14.59;100.00;96206.56;5023910;28;19925;-78
2023/06/05 07:10:02;;;;;;;;;;;;;;;14.61;100.00;96207.13;5025621;28;19925;-79
2023/06/05 07:12:31;;;;;;;;;;;;;;;14.69;100.00;96209.38;5036885;28;19925;-79
2023/06/05 07:15:01;;;;;;;;;;;;;;;15.15;100.00;96215.94;5044334;28;19925;-79
2023/06/05 07:17:30;;;;;;;;;;;;;;;15.72;100.00;96205.16;5047517;28;20471;-79
2023/06/05 07:19:59;;;;;;;;;;;;;;;16.08;100.00;96197.06;5039579;28;19925;-79
2023/06/05 07:22:28;;;;;;;;;;;;;;;16.42;100.00;96209.13;5058659;28;19924;-79
2023/06/05 07:24:57;;;;;;;;;;;;;;;16.89;100.00;96203.47;5029487;28;19932;-79
2023/06/05 07:27:28;;;;;;;;;;;;;;;17.27;100.00;96198.50;5029823;28;19925;-79
2023/06/05 07:29:55;;;;;;;;;;;;;;;17.64;100.00;96198.19;5032466;28;19929;-78
2023/06/05 07:32:22;;;;;;;;;;;;;;;18.09;100.00;96197.16;5042856;28;19996;-79
2023/06/05 07:34:51;;;;;;;;;;;;;;;18.44;97.76;96196.97;5029994;28;19925;-79
2023/06/05 07:37:21;;;;;;;;;;;;;;;18.69;92.33;96193.25;5043764;28;19951;-79
2023/06/05 07:39:51;;;;;;;;;;;;;;;18.92;91.82;96190.88;5040867;28;19932;-78
2023/06/05 07:42:17;;;;;;;;;;;;;;;18.82;90.25;96195.31;5044239;28;19968;-78
2023/06/05 07:44:48;;;;;;;;;;;;;;;18.56;90.84;96193.03;5036140;28;20039;-78
2023/06/05 07:47:17;;;;;;;;;;;;;;;18.17;89.92;96180.19;5024277;28;19960;-78
2023/06/05 07:49:44;;;;;;;;;;;;;;;18.19;88.77;96188.09;5030437;28;19925;-78
2023/06/05 07:52:11;;;;;;;;;;;;;;;18.22;93.52;96188.34;5031836;28;19925;-79
2023/06/05 07:54:39;;;;;;;;;;;;;;;18.48;100.00;96180.78;5035758;28;19924;-78
2023/06/05 07:57:07;;;;;;;;;;;;;;;18.76;94.43;96180.06;5032736;28;19924;-78
2023/06/05 07:59:34;;;;;;;;;;;;;;;18.70;97.20;96173.00;5037746;28;19976;-78
2023/06/05 08:02:07;;;;;;;;;;;;;;;18.63;91.12;96177.97;5031689;28;19925;-78
2023/06/05 08:04:39;;;;;;;;;;;;;;;18.89;92.59;96175.84;5042895;28;19925;-78
2023/06/05 08:07:06;;;;;;;;;;;;;;;19.01;89.38;96170.81;5032675;28;19932;-78
2023/06/05 08:09:36;;;;;;;;;;;;;;;19.30;88.70;96173.56;5031751;28;19948;-78
2023/06/05 08:12:07;;;;;;;;;;;;;;;19.68;89.58;96162.75;5025328;28;19926;-79
2023/06/05 08:14:35;;;;;;;;;;;;;;;20.01;87.12;96159.84;5023273;28;19948;-78
2023/06/05 08:17:01;;;;;;;;;;;;;;;20.18;80.10;96159.34;5013974;28;19925;-78
2023/06/05 08:19:29;;;;;;;;;;;;;;;19.99;81.84;96147.53;5021606;28;19989;-78
2023/06/05 08:21:56;;;;;;;;;;;;;;;20.16;82.94;96147.06;5025861;28;19933;-79
2023/06/05 08:24:28;;;;;;;;;;;;;;;20.32;81.09;96149.28;5031469;28;19925;-79
2023/06/05 08:26:55;;;;;;;;;;;;;;;20.59;82.05;96145.84;5029294;28;19971;-78
2023/06/05 08:29:24;;;;;;;;;;;;;;;20.66;77.44;96143.56;5038456;28;19929;-79
2023/06/05 08:31:51;;;;;;;;;;;;;;;20.47;77.35;96145.50;5012191;28;19925;-77
2023/06/05 08:34:18;;;;;;;;;;;;;;;20.54;77.34;96134.97;5031824;28;19971;-79
2023/06/05 08:36:46;;;;;;;;;;;;;;;20.86;78.08;96133.34;5040873;28;19997;-79
2023/06/05 08:39:15;;;;;;;;;;;;;;;20.85;77.50;96131.72;5032895;28;19929;-78
2023/06/05 08:41:44;;;;;;;;;;;;;;;20.89;76.93;96125.34;5021576;28;20016;-79
2023/06/05 08:44:12;;;;;;;;;;;;;;;21.03;75.92;96128.91;5043799;28;20028;-79
2023/06/05 08:46:41;;;;;;;;;;;;;;;21.18;73.28;96127.06;5012553;28;19979;-79
2023/06/05 08:49:14;;;;;;;;;;;;;;;21.17;73.60;96119.91;5014070;28;19957;-79
2023/06/05 08:51:43;;;;;;;;;;;;;;;20.98;76.62;96118.03;5016394;28;19936;-79
2023/06/05 08:54:13;;;;;;;;;;;;;;;20.87;76.35;96116.59;5024152;28;20015;-79
2023/06/05 08:56:41;;;;;;;;;;;;;;;21.12;76.58;96121.63;5025017;28;20010;-79
2023/06/05 08:59:08;;;;;;;;;;;;;;;21.31;76.36;96112.53;5010576;28;19929;-79
2023/06/05 09:01:37;;;;;;;;;;;;;;;21.56;76.38;96114.75;5030630;28;19925;-79
2023/06/05 09:04:05;;;;;;;;;;;;;;;21.60;76.39;96115.78;5025561;28;19971;-79
2023/06/05 09:06:33;;;;;;;;;;;;;;;21.74;78.32;96107.53;5014646;28;19931;-79
2023/06/05 09:09:01;;;;;;;;;;;;;;;21.96;80.38;96104.03;5035839;28;19925;-79
2023/06/05 09:11:29;;;;;;;;;;;;;;;21.89;75.26;96109.94;5025802;28;19960;-79
2023/06/05 09:13:56;;;;;;;;;;;;;;;21.85;74.86;96107.03;5027425;28;19929;-79
2023/06/05 09:16:32;;;;;;;;;;;;;;;21.76;74.63;96102.56;5018471;28;19975;-79
2023/06/05 09:18:59;;;;;;;;;;;;;;;21.63;75.63;96104.19;5024307;28;19986;-80
2023/06/05 09:21:30;;;;;;;;;;;;;;;21.63;74.94;96100.59;5030136;28;19929;-79
2023/06/05 09:24:26;;;;;;;;;;;;;;;;;;;;;
2023/06/05 09:26:55;;;;;;;;;;;;;;;21.93;78.24;96088.16;5045474;28;20015;-79
2023/06/05 09:29:26;;;;;;;;;;;;;;;21.90;75.26;96084.91;5043004;28;19931;-79
2023/06/05 09:31:54;;;;;;;;;;;;;;;22.01;76.10;96084.72;5048329;28;19940;-79
2023/06/05 09:34:25;;;;;;;;;;;;;;;22.01;74.87;96091.03;5017375;28;19931;-79
2023/06/05 09:36:54;;;;;;;;;;;;;;;21.90;74.06;96084.91;5034706;28;19924;-79
2023/06/05 09:39:22;;;;;;;;;;;;;;;22.02;76.32;96080.84;5029892;28;19925;-79
2023/06/05 09:41:51;;;;;;;;;;;;;;;22.05;74.89;96080.22;5031830;28;20019;-80
2023/06/05 09:44:18;;;;;;;;;;;;;;;22.16;76.45;96081.63;5023131;28;19932;-79
2023/06/05 09:47:07;;;;;;;;;;;;;;;22.23;75.21;96082.00;5048439;28;19925;-80
2023/06/05 09:49:47;;;;;;;;;;;;;;;22.28;74.98;96079.13;5046786;28;19925;-79
2023/06/05 09:52:16;;;;;;;;;;;;;;;22.41;73.72;96072.75;5041068;28;19932;-80
2023/06/05 09:54:44;;;;;;;;;;;;;;;22.49;73.50;96066.50;5021741;28;19933;-80
2023/06/05 09:57:13;;;;;;;;;;;;;;;22.68;72.96;96073.75;5024030;28;19925;-80
2023/06/05 09:59:45;;;;;;;;;;;;;;;22.73;74.32;96068.13;5024909;28;19925;-79
2023/06/05 10:02:16;;;;;;;;;;;;;;;22.72;72.17;96070.03;5031369;28;19995;-79
2023/06/05 10:04:46;;;;;;;;;;;;;;;22.88;71.60;96073.28;5033770;28;19925;-79
2023/06/05 10:07:16;;;;;;;;;;;;;;;22.98;69.46;96068.28;5028745;28;19925;-80
2023/06/05 10:09:45;;;;;;;;;;;;;;;22.98;72.08;96064.72;5036672;28;19924;-80
2023/06/05 10:12:16;;;;;;;;;;;;;;;23.10;73.18;96064.16;5031563;28;19926;-80
2023/06/05 10:14:44;;;;;;;;;;;;;;;23.08;72.21;96061.72;5029939;28;19925;-80
2023/06/05 10:17:12;;;;;;;;;;;;;;;23.22;72.73;96069.88;5050866;28;19933;-80
2023/06/05 10:19:44;;;;;;;;;;;;;;;23.44;74.56;96063.47;5031275;28;19924;-80
2023/06/05 10:22:12;;;;;;;;;;;;;;;23.35;71.35;96058.75;5040660;28;19924;-79
2023/06/05 10:24:43;;;;;;;;;;;;;;;23.48;74.59;96062.50;5035647;28;19972;-80
2023/06/05 10:27:29;;;;;;;;;;;;;;;23.57;73.06;96049.59;5035064;28;19956;-80
2023/06/05 10:30:15;;;;;;;;;;;;;;;23.52;71.90;96060.78;5037005;28;19979;-80
2023/06/05 10:32:54;;;;;;;;;;;;;;;23.74;72.22;96057.91;5046750;28;19925;-80
2023/06/05 10:35:34;;;;;;;;;;;;;;;23.81;72.44;96054.69;5042169;28;19929;-80
2023/06/05 10:38:09;;;;;;;;;;;;;;;23.62;72.54;96051.41;5014413;28;20171;-79
2023/06/05 10:40:40;;;;;;;;;;;;;;;23.86;72.18;96050.97;5031284;28;19925;-80
2023/06/05 10:43:27;;;;;;;;;;;;;;;24.04;70.51;96050.66;5051618;28;19971;-80
2023/06/05 10:45:58;;;;;;;;;;;;;;;24.11;70.63;96050.19;5048098;28;20043;-80
2023/06/05 10:48:46;;;;;;;;;;;;;;;24.16;68.86;96050.00;5026598;28;19925;-80
2023/06/05 10:51:32;;;;;;;;;;;;;;;24.03;69.67;96045.47;5029185;28;19924;-80
2023/06/05 10:54:01;;;;;;;;;;;;;;;24.33;69.24;96044.53;5030558;28;19928;-80
2023/06/05 10:56:49;;;;;;;;;;;;;;;24.42;69.61;96041.75;5030772;28;19932;-80
2023/06/05 10:59:20;;;;;;;;;;;;;;;24.46;67.36;96042.75;5031962;28;19925;-80
2023/06/05 11:02:08;;;;;;;;;;;;;;;24.44;67.16;96039.50;5060886;28;19924;-80
2023/06/05 11:04:51;;;;;;;;;;;;;;;24.43;68.92;96040.63;5018218;28;20028;-78
2023/06/05 11:07:18;;;;;;;;;;;;;;;24.43;68.93;96044.19;5023271;28;19936;-78
2023/06/05 11:10:00;;;;;;;;;;;;;;;24.63;64.91;96042.72;5030642;28;19964;-78
2023/06/05 11:12:27;;;;;;;;;;;;;;;24.64;65.35;96032.50;5025707;28;19925;-78
2023/06/05 11:14:55;;;;;;;;;;;;;;;24.60;66.30;96037.84;5019353;28;19925;-78
2023/06/05 11:17:32;;;;;;;;;;;;;;;24.58;68.68;96028.28;5026096;28;19937;-78
2023/06/05 11:20:05;;;;;;;;;;;;;;;24.96;65.60;96028.38;5012460;28;19929;-78
2023/06/05 11:22:33;;;;;;;;;;;;;;;25.24;64.64;96018.53;5027897;28;19926;-78
2023/06/05 11:25:20;;;;;;;;;;;;;;;24.93;63.84;96027.06;5030535;28;19931;-78
2023/06/05 11:27:48;;;;;;;;;;;;;;;24.74;63.91;96021.91;5030644;28;19925;-79
2023/06/05 11:30:19;;;;;;;;;;;;;;;24.71;63.63;96017.03;5022797;28;20009;-80
2023/06/05 11:32:47;;;;;;;;;;;;;;;24.89;61.93;96013.09;5027529;28;19925;-80
2023/06/05 11:35:14;;;;;;;;;;;;;;;24.99;62.22;96002.88;5032598;28;19925;-80
2023/06/05 11:37:41;;;;;;;;;;;;;;;25.15;62.66;96007.50;5042426;28;19925;-80
2023/06/05 11:40:09;;;;;;;;;;;;;;;25.35;62.82;96010.69;5027346;28;19925;-80
2023/06/05 11:42:38;;;;;;;;;;;;;;;25.48;60.66;96004.91;5027764;28;19936;-80
2023/06/05 11:45:11;;;;;;;;;;;;;;;25.68;60.27;95995.06;5026693;28;19964;-81
2023/06/05 11:47:40;;;;;;;;;;;;;;;25.45;59.25;95997.28;5026974;28;19933;-82
2023/06/05 11:50:10;;;;;;;;;;;;;;;25.08;59.04;96000.88;5022646;28;19933;-81
2023/06/05 11:52:40;;;;;;;;;;;;;;;24.92;59.67;95991.53;5029581;28;19925;-81
2023/06/05 11:55:15;;;;;;;;;;;;;;;25.07;60.07;95994.53;5029179;28;19932;-81
2023/06/05 11:57:42;;;;;;;;;;;;;;;25.33;59.83;95999.13;5021436;28;19939;-81
2023/06/05 12:00:10;;;;;;;;;;;;;;;25.59;58.79;95997.06;5026174;28;19952;-80
2023/06/05 12:02:42;;;;;;;;;;;;;;;25.80;57.46;95994.31;5020776;28;19933;-80
2023/06/05 12:05:15;;;;;;;;;;;;;;;25.93;56.73;96004.31;5016653;28;19961;-80
2023/06/05 12:07:43;;;;;;;;;;;;;;;25.91;58.40;95992.78;5029817;28;19925;-80
2023/06/05 12:10:13;;;;;;;;;;;;;;;26.07;58.10;95985.50;5029929;28;19929;-80
2023/06/05 12:12:50;;;;;;;;;;;;;;;26.07;57.72;95985.91;5027320;28;19931;-80
2023/06/05 12:15:18;;;;;;;;;;;;;;;26.34;55.83;95975.84;5027043;28;19925;-80
2023/06/05 12:17:51;;;;;;;;;;;;;;;26.42;53.18;95979.69;5021555;28;19926;-80
2023/06/05 12:20:21;;;;;;;;;;;;;;;26.65;54.78;95978.94;5042846;28;19925;-80
2023/06/05 12:22:47;;;;;;;;;;;;;;;26.71;53.48;95972.03;5039888;28;19948;-80
2023/06/05 12:25:18;;;;;;;;;;;;;;;26.46;52.04;95964.00;5025068;28;19924;-80
2023/06/05 12:27:45;;;;;;;;;;;;;;;26.46;53.62;95964.00;5029224;28;19931;-80
2023/06/05 12:30:12;;;;;;;;;;;;;;;26.81;53.59;95968.00;5030981;28;19924;-80
2023/06/05 12:32:39;;;;;;;;;;;;;;;26.81;52.59;95954.16;5033247;28;19934;-81
2023/06/05 12:35:19;;;;;;;;;;;;;;;26.85;50.84;95957.88;5026682;28;19932;-80
2023/06/05 12:37:50;;;;;;;;;;;;;;;26.86;47.36;95955.91;5031175;28;19925;-80
2023/06/05 12:40:20;;;;;;;;;;;;;;;26.68;47.67;95958.06;5045549;28;19948;-80
2023/06/05 12:42:49;;;;;;;;;;;;;;;26.71;49.02;95938.78;5026640;28;19932;-80
2023/06/05 12:45:18;;;;;;;;;;;;;;;26.73;49.45;95935.69;5018384;28;19926;-78
2023/06/05 12:47:51;;;;;;;;;;;;;;;26.55;49.29;95951.69;5029938;28;19924;-78
2023/06/05 12:50:19;;;;;;;;;;;;;;;26.64;50.35;95949.63;5029472;28;20004;-78
2023/06/05 12:52:47;;;;;;;;;;;;;;;26.71;48.82;95938.00;5045800;28;19925;-78
2023/06/05 12:55:17;;;;;;;;;;;;;;;26.86;49.11;95928.22;5043973;28;19933;-78